Terminal Aerodrome Forecast
Issued by NWS Mt. Holly, NJ

Current Version | Previous Version | Text Only | Print | Product List | Glossary On
Versions: 1 2 3 4 5 6 7 8 9 10 11 12 13 14 15 16 17 18 19 20 21 22 23
000
FTUS41 KPHI 260840 AAA
TAFPHL
TAF AMD
KPHL 260840Z 2609/2712 20007KT P6SM FEW250
     FM261600 21011G19KT P6SM FEW050 SCT200
     FM270000 20008KT P6SM BKN120
     FM270400 17006KT P6SM FEW020 SCT100=

USA.gov is the U.S. government's official web portal to all federal, state and local government web resources and services.